sensor_id;sensor_type;location;lat;lon;timestamp;P1;durP1;ratioP1;P2;durP2;ratioP2
34775;SDS011;20989;52.566;13.346;2022-08-21T00:02:13;1.08;;;1.08;;
34775;SDS011;20989;52.566;13.346;2022-08-21T00:05:16;1.08;;;1.08;;
34775;SDS011;20989;52.566;13.346;2022-08-21T00:08:18;1.48;;;1.38;;
34775;SDS011;20989;52.566;13.346;2022-08-21T00:11:19;1.20;;;1.10;;
34775;SDS011;20989;52.566;13.346;2022-08-21T00:14:20;1.17;;;1.15;;
34775;SDS011;20989;52.566;13.346;2022-08-21T00:17:21;1.17;;;1.17;;
34775;SDS011;20989;52.566;13.346;2022-08-21T00:20:22;1.45;;;1.30;;
34775;SDS011;20989;52.566;13.346;2022-08-21T00:23:23;0.70;;;0.70;;
34775;SDS011;20989;52.566;13.346;2022-08-21T00:26:24;1.00;;;1.00;;
34775;SDS011;20989;52.566;13.346;2022-08-21T00:29:24;1.23;;;1.20;;
34775;SDS011;20989;52.566;13.346;2022-08-21T00:32:26;1.48;;;1.38;;
34775;SDS011;20989;52.566;13.346;2022-08-21T00:35:29;1.50;;;0.90;;
34775;SDS011;20989;52.566;13.346;2022-08-21T00:38:31;1.15;;;1.10;;
34775;SDS011;20989;52.566;13.346;2022-08-21T00:41:33;1.10;;;1.10;;
34775;SDS011;20989;52.566;13.346;2022-08-21T00:44:35;0.90;;;0.90;;
34775;SDS011;20989;52.566;13.346;2022-08-21T00:47:35;0.80;;;0.80;;
34775;SDS011;20989;52.566;13.346;2022-08-21T00:50:38;1.40;;;1.38;;
34775;SDS011;20989;52.566;13.346;2022-08-21T00:53:43;1.10;;;1.10;;
34775;SDS011;20989;52.566;13.346;2022-08-21T00:56:46;1.48;;;1.38;;
34775;SDS011;20989;52.566;13.346;2022-08-21T00:59:50;1.30;;;1.30;;
34775;SDS011;20989;52.566;13.346;2022-08-21T01:02:53;1.00;;;1.00;;
34775;SDS011;20989;52.566;13.346;2022-08-21T01:05:54;1.25;;;0.98;;
34775;SDS011;20989;52.566;13.346;2022-08-21T01:08:55;1.00;;;1.00;;
34775;SDS011;20989;52.566;13.346;2022-08-21T01:11:56;0.90;;;0.90;;
34775;SDS011;20989;52.566;13.346;2022-08-21T01:14:56;1.58;;;1.13;;
34775;SDS011;20989;52.566;13.346;2022-08-21T01:17:58;1.02;;;1.02;;
34775;SDS011;20989;52.566;13.346;2022-08-21T01:24:05;1.00;;;1.00;;
34775;SDS011;20989;52.566;13.346;2022-08-21T01:27:06;1.02;;;1.02;;
34775;SDS011;20989;52.566;13.346;2022-08-21T01:30:14;1.20;;;1.20;;
34775;SDS011;20989;52.566;13.346;2022-08-21T01:33:22;0.90;;;0.90;;
34775;SDS011;20989;52.566;13.346;2022-08-21T01:36:25;1.25;;;1.17;;
34775;SDS011;20989;52.566;13.346;2022-08-21T01:39:26;0.90;;;0.90;;
34775;SDS011;20989;52.566;13.346;2022-08-21T01:42:27;0.85;;;0.85;;
34775;SDS011;20989;52.566;13.346;2022-08-21T01:45:28;1.08;;;1.08;;
34775;SDS011;20989;52.566;13.346;2022-08-21T01:48:29;1.10;;;1.10;;
34775;SDS011;20989;52.566;13.346;2022-08-21T01:51:30;0.82;;;0.82;;
34775;SDS011;20989;52.566;13.346;2022-08-21T01:54:31;1.10;;;1.05;;
34775;SDS011;20989;52.566;13.346;2022-08-21T01:57:32;1.08;;;0.95;;
34775;SDS011;20989;52.566;13.346;2022-08-21T02:00:33;0.98;;;0.98;;
34775;SDS011;20989;52.566;13.346;2022-08-21T02:03:34;0.73;;;0.73;;
34775;SDS011;20989;52.566;13.346;2022-08-21T02:06:36;0.68;;;0.68;;
34775;SDS011;20989;52.566;13.346;2022-08-21T02:09:38;0.90;;;0.90;;
34775;SDS011;20989;52.566;13.346;2022-08-21T02:12:39;0.95;;;0.95;;
34775;SDS011;20989;52.566;13.346;2022-08-21T02:15:40;1.10;;;1.10;;
34775;SDS011;20989;52.566;13.346;2022-08-21T02:18:41;0.88;;;0.88;;
34775;SDS011;20989;52.566;13.346;2022-08-21T02:21:42;1.05;;;1.05;;
34775;SDS011;20989;52.566;13.346;2022-08-21T02:24:44;0.73;;;0.73;;
34775;SDS011;20989;52.566;13.346;2022-08-21T02:27:45;0.77;;;0.77;;
34775;SDS011;20989;52.566;13.346;2022-08-21T02:30:47;0.73;;;0.73;;
34775;SDS011;20989;52.566;13.346;2022-08-21T02:33:49;0.65;;;0.65;;
34775;SDS011;20989;52.566;13.346;2022-08-21T02:36:49;0.60;;;0.60;;
34775;SDS011;20989;52.566;13.346;2022-08-21T02:39:50;1.00;;;1.00;;
34775;SDS011;20989;52.566;13.346;2022-08-21T02:42:52;0.80;;;0.80;;
34775;SDS011;20989;52.566;13.346;2022-08-21T02:45:53;2.28;;;0.82;;
34775;SDS011;20989;52.566;13.346;2022-08-21T02:48:56;0.80;;;0.80;;
34775;SDS011;20989;52.566;13.346;2022-08-21T02:51:56;0.80;;;0.80;;
34775;SDS011;20989;52.566;13.346;2022-08-21T02:54:57;0.77;;;0.77;;
34775;SDS011;20989;52.566;13.346;2022-08-21T02:57:58;0.80;;;0.80;;
34775;SDS011;20989;52.566;13.346;2022-08-21T03:00:59;1.05;;;1.02;;
34775;SDS011;20989;52.566;13.346;2022-08-21T03:04:00;0.80;;;0.80;;
34775;SDS011;20989;52.566;13.346;2022-08-21T03:07:01;0.80;;;0.80;;
34775;SDS011;20989;52.566;13.346;2022-08-21T03:10:03;0.90;;;0.90;;
34775;SDS011;20989;52.566;13.346;2022-08-21T03:13:04;1.27;;;0.90;;
34775;SDS011;20989;52.566;13.346;2022-08-21T03:16:06;0.90;;;0.90;;
34775;SDS011;20989;52.566;13.346;2022-08-21T03:19:07;0.70;;;0.70;;
34775;SDS011;20989;52.566;13.346;2022-08-21T03:22:07;0.80;;;0.80;;
34775;SDS011;20989;52.566;13.346;2022-08-21T03:25:08;0.93;;;0.93;;
34775;SDS011;20989;52.566;13.346;2022-08-21T03:28:11;1.23;;;0.70;;
34775;SDS011;20989;52.566;13.346;2022-08-21T03:31:14;0.80;;;0.80;;
34775;SDS011;20989;52.566;13.346;2022-08-21T03:34:14;0.60;;;0.60;;
34775;SDS011;20989;52.566;13.346;2022-08-21T03:37:15;0.90;;;0.90;;
34775;SDS011;20989;52.566;13.346;2022-08-21T03:40:18;0.95;;;0.95;;
34775;SDS011;20989;52.566;13.346;2022-08-21T03:43:19;1.45;;;0.75;;
34775;SDS011;20989;52.566;13.346;2022-08-21T03:46:20;0.70;;;0.70;;
34775;SDS011;20989;52.566;13.346;2022-08-21T03:49:20;0.80;;;0.80;;
34775;SDS011;20989;52.566;13.346;2022-08-21T03:52:21;0.80;;;0.80;;
34775;SDS011;20989;52.566;13.346;2022-08-21T03:55:22;0.95;;;0.95;;
34775;SDS011;20989;52.566;13.346;2022-08-21T03:58:24;0.80;;;0.80;;
34775;SDS011;20989;52.566;13.346;2022-08-21T04:01:26;0.90;;;0.90;;
34775;SDS011;20989;52.566;13.346;2022-08-21T04:04:27;0.70;;;0.70;;
34775;SDS011;20989;52.566;13.346;2022-08-21T04:07:28;0.70;;;0.70;;
34775;SDS011;20989;52.566;13.346;2022-08-21T04:10:30;0.80;;;0.80;;
34775;SDS011;20989;52.566;13.346;2022-08-21T04:13:32;0.90;;;0.90;;
34775;SDS011;20989;52.566;13.346;2022-08-21T04:16:34;0.77;;;0.73;;
34775;SDS011;20989;52.566;13.346;2022-08-21T04:19:34;2.28;;;0.80;;
34775;SDS011;20989;52.566;13.346;2022-08-21T04:22:35;0.60;;;0.60;;
34775;SDS011;20989;52.566;13.346;2022-08-21T04:25:36;0.73;;;0.73;;
34775;SDS011;20989;52.566;13.346;2022-08-21T04:28:36;0.88;;;0.88;;
34775;SDS011;20989;52.566;13.346;2022-08-21T04:31:37;0.75;;;0.75;;
34775;SDS011;20989;52.566;13.346;2022-08-21T04:34:38;0.80;;;0.80;;
34775;SDS011;20989;52.566;13.346;2022-08-21T04:37:38;1.23;;;1.10;;
34775;SDS011;20989;52.566;13.346;2022-08-21T04:40:39;0.70;;;0.70;;
34775;SDS011;20989;52.566;13.346;2022-08-21T04:43:39;0.73;;;0.73;;
34775;SDS011;20989;52.566;13.346;2022-08-21T04:46:40;0.85;;;0.80;;
34775;SDS011;20989;52.566;13.346;2022-08-21T04:49:41;0.68;;;0.68;;
34775;SDS011;20989;52.566;13.346;2022-08-21T04:52:41;1.15;;;1.10;;
34775;SDS011;20989;52.566;13.346;2022-08-21T04:55:43;0.88;;;0.88;;
34775;SDS011;20989;52.566;13.346;2022-08-21T04:58:45;1.08;;;1.00;;
34775;SDS011;20989;52.566;13.346;2022-08-21T05:01:48;0.90;;;0.90;;
34775;SDS011;20989;52.566;13.346;2022-08-21T05:04:51;0.82;;;0.82;;
34775;SDS011;20989;52.566;13.346;2022-08-21T05:07:53;0.70;;;0.70;;
34775;SDS011;20989;52.566;13.346;2022-08-21T05:10:54;0.80;;;0.80;;
34775;SDS011;20989;52.566;13.346;2022-08-21T05:13:55;0.60;;;0.60;;
34775;SDS011;20989;52.566;13.346;2022-08-21T05:16:55;1.05;;;0.98;;
34775;SDS011;20989;52.566;13.346;2022-08-21T05:19:56;0.70;;;0.70;;
34775;SDS011;20989;52.566;13.346;2022-08-21T05:22:57;0.70;;;0.70;;
34775;SDS011;20989;52.566;13.346;2022-08-21T05:25:57;0.93;;;0.85;;
34775;SDS011;20989;52.566;13.346;2022-08-21T05:28:58;0.80;;;0.80;;
34775;SDS011;20989;52.566;13.346;2022-08-21T05:31:59;0.70;;;0.70;;
34775;SDS011;20989;52.566;13.346;2022-08-21T05:34:59;0.80;;;0.80;;
34775;SDS011;20989;52.566;13.346;2022-08-21T05:38:00;0.73;;;0.73;;
34775;SDS011;20989;52.566;13.346;2022-08-21T05:41:01;0.82;;;0.82;;
34775;SDS011;20989;52.566;13.346;2022-08-21T05:44:02;0.68;;;0.68;;
34775;SDS011;20989;52.566;13.346;2022-08-21T05:47:06;0.82;;;0.82;;
34775;SDS011;20989;52.566;13.346;2022-08-21T05:50:08;0.73;;;0.73;;
34775;SDS011;20989;52.566;13.346;2022-08-21T05:53:09;0.70;;;0.70;;
34775;SDS011;20989;52.566;13.346;2022-08-21T05:56:11;1.10;;;1.00;;
34775;SDS011;20989;52.566;13.346;2022-08-21T05:59:12;0.93;;;0.82;;
34775;SDS011;20989;52.566;13.346;2022-08-21T06:02:13;0.82;;;0.82;;
34775;SDS011;20989;52.566;13.346;2022-08-21T06:05:14;0.95;;;0.85;;
34775;SDS011;20989;52.566;13.346;2022-08-21T06:08:16;0.73;;;0.73;;
34775;SDS011;20989;52.566;13.346;2022-08-21T06:11:17;0.70;;;0.60;;
34775;SDS011;20989;52.566;13.346;2022-08-21T06:14:18;0.70;;;0.70;;
34775;SDS011;20989;52.566;13.346;2022-08-21T06:17:19;0.70;;;0.70;;
34775;SDS011;20989;52.566;13.346;2022-08-21T06:20:19;0.93;;;0.90;;
34775;SDS011;20989;52.566;13.346;2022-08-21T06:23:20;0.80;;;0.80;;
34775;SDS011;20989;52.566;13.346;2022-08-21T06:26:21;0.70;;;0.70;;
34775;SDS011;20989;52.566;13.346;2022-08-21T06:29:22;0.77;;;0.77;;
34775;SDS011;20989;52.566;13.346;2022-08-21T06:32:23;0.70;;;0.70;;
34775;SDS011;20989;52.566;13.346;2022-08-21T06:35:24;0.70;;;0.70;;
34775;SDS011;20989;52.566;13.346;2022-08-21T06:38:24;1.13;;;1.02;;
34775;SDS011;20989;52.566;13.346;2022-08-21T06:41:25;0.82;;;0.77;;
34775;SDS011;20989;52.566;13.346;2022-08-21T06:44:26;1.17;;;0.80;;
34775;SDS011;20989;52.566;13.346;2022-08-21T06:47:27;0.98;;;0.90;;
34775;SDS011;20989;52.566;13.346;2022-08-21T06:50:27;1.15;;;1.05;;
34775;SDS011;20989;52.566;13.346;2022-08-21T06:53:28;0.85;;;0.80;;
34775;SDS011;20989;52.566;13.346;2022-08-21T06:56:29;1.25;;;1.00;;
34775;SDS011;20989;52.566;13.346;2022-08-21T06:59:30;0.85;;;0.85;;
34775;SDS011;20989;52.566;13.346;2022-08-21T07:02:31;0.85;;;0.85;;
34775;SDS011;20989;52.566;13.346;2022-08-21T07:05:33;0.80;;;0.80;;
34775;SDS011;20989;52.566;13.346;2022-08-21T07:08:34;0.80;;;0.80;;
34775;SDS011;20989;52.566;13.346;2022-08-21T07:11:35;1.98;;;1.08;;
34775;SDS011;20989;52.566;13.346;2022-08-21T07:14:37;1.13;;;1.05;;
34775;SDS011;20989;52.566;13.346;2022-08-21T07:17:38;0.73;;;0.63;;
34775;SDS011;20989;52.566;13.346;2022-08-21T07:20:39;1.08;;;0.88;;
34775;SDS011;20989;52.566;13.346;2022-08-21T07:23:42;0.95;;;0.85;;
34775;SDS011;20989;52.566;13.346;2022-08-21T07:26:44;0.98;;;0.90;;
34775;SDS011;20989;52.566;13.346;2022-08-21T07:29:45;1.10;;;1.00;;
34775;SDS011;20989;52.566;13.346;2022-08-21T07:32:45;0.80;;;0.80;;
34775;SDS011;20989;52.566;13.346;2022-08-21T07:35:49;1.17;;;0.82;;
34775;SDS011;20989;52.566;13.346;2022-08-21T07:38:50;0.80;;;0.80;;
34775;SDS011;20989;52.566;13.346;2022-08-21T07:41:50;1.02;;;0.80;;
34775;SDS011;20989;52.566;13.346;2022-08-21T07:44:51;1.13;;;1.05;;
34775;SDS011;20989;52.566;13.346;2022-08-21T07:47:52;0.98;;;0.90;;
34775;SDS011;20989;52.566;13.346;2022-08-21T07:50:52;1.08;;;0.98;;
34775;SDS011;20989;52.566;13.346;2022-08-21T07:53:55;1.25;;;1.15;;
34775;SDS011;20989;52.566;13.346;2022-08-21T07:56:57;0.85;;;0.85;;
34775;SDS011;20989;52.566;13.346;2022-08-21T07:59:58;5.20;;;1.00;;
34775;SDS011;20989;52.566;13.346;2022-08-21T08:02:59;1.30;;;1.05;;
34775;SDS011;20989;52.566;13.346;2022-08-21T08:06:00;0.85;;;0.85;;
34775;SDS011;20989;52.566;13.346;2022-08-21T08:09:00;0.80;;;0.80;;
34775;SDS011;20989;52.566;13.346;2022-08-21T08:12:03;1.05;;;0.88;;
34775;SDS011;20989;52.566;13.346;2022-08-21T08:15:04;1.13;;;0.90;;
34775;SDS011;20989;52.566;13.346;2022-08-21T08:18:07;1.33;;;0.80;;
34775;SDS011;20989;52.566;13.346;2022-08-21T08:21:08;0.88;;;0.70;;
34775;SDS011;20989;52.566;13.346;2022-08-21T08:24:09;0.77;;;0.77;;
34775;SDS011;20989;52.566;13.346;2022-08-21T08:27:10;1.17;;;0.70;;
34775;SDS011;20989;52.566;13.346;2022-08-21T08:30:11;0.90;;;0.85;;
34775;SDS011;20989;52.566;13.346;2022-08-21T08:33:13;0.80;;;0.80;;
34775;SDS011;20989;52.566;13.346;2022-08-21T08:36:16;1.05;;;0.70;;
34775;SDS011;20989;52.566;13.346;2022-08-21T08:39:17;1.20;;;1.02;;
34775;SDS011;20989;52.566;13.346;2022-08-21T08:42:20;0.77;;;0.65;;
34775;SDS011;20989;52.566;13.346;2022-08-21T08:45:26;1.00;;;0.75;;
34775;SDS011;20989;52.566;13.346;2022-08-21T08:51:57;0.60;;;0.60;;
34775;SDS011;20989;52.566;13.346;2022-08-21T08:58:12;0.80;;;0.80;;
34775;SDS011;20989;52.566;13.346;2022-08-21T09:01:22;1.48;;;0.70;;
34775;SDS011;20989;52.566;13.346;2022-08-21T09:04:24;0.60;;;0.60;;
34775;SDS011;20989;52.566;13.346;2022-08-21T09:11:03;7.45;;;1.33;;
34775;SDS011;20989;52.566;13.346;2022-08-21T09:14:08;4.32;;;1.35;;
34775;SDS011;20989;52.566;13.346;2022-08-21T09:21:02;6.72;;;1.60;;
34775;SDS011;20989;52.566;13.346;2022-08-21T09:27:26;17.85;;;1.80;;
34775;SDS011;20989;52.566;13.346;2022-08-21T09:30:30;12.32;;;2.15;;
34775;SDS011;20989;52.566;13.346;2022-08-21T09:33:32;12.82;;;1.52;;
34775;SDS011;20989;52.566;13.346;2022-08-21T09:36:35;3.53;;;1.60;;
34775;SDS011;20989;52.566;13.346;2022-08-21T09:39:39;2.92;;;1.17;;
34775;SDS011;20989;52.566;13.346;2022-08-21T09:42:39;2.13;;;1.17;;
34775;SDS011;20989;52.566;13.346;2022-08-21T09:45:41;6.00;;;1.33;;
34775;SDS011;20989;52.566;13.346;2022-08-21T09:48:44;3.42;;;1.52;;
34775;SDS011;20989;52.566;13.346;2022-08-21T09:51:50;6.05;;;1.30;;
34775;SDS011;20989;52.566;13.346;2022-08-21T09:54:53;6.05;;;1.25;;
34775;SDS011;20989;52.566;13.346;2022-08-21T09:57:55;2.08;;;1.35;;
34775;SDS011;20989;52.566;13.346;2022-08-21T10:00:57;2.13;;;1.20;;
34775;SDS011;20989;52.566;13.346;2022-08-21T10:04:09;5.03;;;1.70;;
34775;SDS011;20989;52.566;13.346;2022-08-21T10:07:12;4.30;;;1.27;;
34775;SDS011;20989;52.566;13.346;2022-08-21T10:10:18;9.52;;;1.60;;
34775;SDS011;20989;52.566;13.346;2022-08-21T10:13:30;6.55;;;1.40;;
34775;SDS011;20989;52.566;13.346;2022-08-21T10:16:58;5.38;;;1.30;;
34775;SDS011;20989;52.566;13.346;2022-08-21T10:20:09;2.28;;;1.20;;
34775;SDS011;20989;52.566;13.346;2022-08-21T10:29:55;10.57;;;1.88;;
34775;SDS011;20989;52.566;13.346;2022-08-21T10:39:43;6.72;;;1.40;;
34775;SDS011;20989;52.566;13.346;2022-08-21T10:46:17;4.55;;;1.30;;
34775;SDS011;20989;52.566;13.346;2022-08-21T10:55:35;2.83;;;1.10;;
34775;SDS011;20989;52.566;13.346;2022-08-21T10:58:37;6.93;;;1.20;;
34775;SDS011;20989;52.566;13.346;2022-08-21T11:05:27;12.80;;;1.50;;
34775;SDS011;20989;52.566;13.346;2022-08-21T11:08:41;3.10;;;1.23;;
34775;SDS011;20989;52.566;13.346;2022-08-21T11:11:52;3.93;;;1.40;;
34775;SDS011;20989;52.566;13.346;2022-08-21T11:18:31;6.93;;;1.15;;
34775;SDS011;20989;52.566;13.346;2022-08-21T11:21:45;8.43;;;0.90;;
34775;SDS011;20989;52.566;13.346;2022-08-21T11:25:06;2.25;;;1.00;;
34775;SDS011;20989;52.566;13.346;2022-08-21T11:28:16;3.15;;;1.35;;
34775;SDS011;20989;52.566;13.346;2022-08-21T11:31:41;2.00;;;1.33;;
34775;SDS011;20989;52.566;13.346;2022-08-21T11:34:54;2.35;;;1.08;;
34775;SDS011;20989;52.566;13.346;2022-08-21T11:41:21;1.20;;;0.73;;
34775;SDS011;20989;52.566;13.346;2022-08-21T11:51:13;1.65;;;0.70;;
34775;SDS011;20989;52.566;13.346;2022-08-21T11:54:30;5.43;;;0.88;;
34775;SDS011;20989;52.566;13.346;2022-08-21T11:57:41;1.63;;;0.80;;
34775;SDS011;20989;52.566;13.346;2022-08-21T12:00:52;2.88;;;1.05;;
34775;SDS011;20989;52.566;13.346;2022-08-21T12:04:04;2.90;;;0.88;;
34775;SDS011;20989;52.566;13.346;2022-08-21T12:07:14;2.08;;;1.10;;
34775;SDS011;20989;52.566;13.346;2022-08-21T12:10:17;0.73;;;0.70;;
34775;SDS011;20989;52.566;13.346;2022-08-21T12:13:24;2.45;;;0.80;;
34775;SDS011;20989;52.566;13.346;2022-08-21T12:19:32;3.10;;;0.82;;
34775;SDS011;20989;52.566;13.346;2022-08-21T12:22:35;2.20;;;0.70;;
34775;SDS011;20989;52.566;13.346;2022-08-21T12:25:42;7.25;;;1.10;;
34775;SDS011;20989;52.566;13.346;2022-08-21T12:28:46;2.47;;;0.98;;
34775;SDS011;20989;52.566;13.346;2022-08-21T12:32:01;2.58;;;0.80;;
34775;SDS011;20989;52.566;13.346;2022-08-21T12:35:07;5.30;;;0.80;;
34775;SDS011;20989;52.566;13.346;2022-08-21T12:38:28;1.98;;;0.80;;
34775;SDS011;20989;52.566;13.346;2022-08-21T12:41:33;4.43;;;0.68;;
34775;SDS011;20989;52.566;13.346;2022-08-21T12:44:46;2.20;;;0.88;;
34775;SDS011;20989;52.566;13.346;2022-08-21T12:48:09;1.67;;;0.80;;
34775;SDS011;20989;52.566;13.346;2022-08-21T12:51:23;3.85;;;0.90;;
34775;SDS011;20989;52.566;13.346;2022-08-21T12:54:29;1.20;;;0.80;;
34775;SDS011;20989;52.566;13.346;2022-08-21T12:57:37;4.88;;;0.90;;
34775;SDS011;20989;52.566;13.346;2022-08-21T13:00:40;7.32;;;0.88;;
34775;SDS011;20989;52.566;13.346;2022-08-21T13:03:53;10.50;;;0.70;;
34775;SDS011;20989;52.566;13.346;2022-08-21T13:06:57;2.25;;;0.60;;
34775;SDS011;20989;52.566;13.346;2022-08-21T13:10:06;3.15;;;0.80;;
34775;SDS011;20989;52.566;13.346;2022-08-21T13:13:24;3.55;;;0.90;;
34775;SDS011;20989;52.566;13.346;2022-08-21T13:16:27;2.40;;;0.65;;
34775;SDS011;20989;52.566;13.346;2022-08-21T13:19:29;0.95;;;0.70;;
34775;SDS011;20989;52.566;13.346;2022-08-21T13:22:31;3.20;;;0.60;;
34775;SDS011;20989;52.566;13.346;2022-08-21T13:25:36;6.22;;;0.88;;
34775;SDS011;20989;52.566;13.346;2022-08-21T13:28:37;3.20;;;0.70;;
34775;SDS011;20989;52.566;13.346;2022-08-21T13:31:38;1.75;;;0.98;;
34775;SDS011;20989;52.566;13.346;2022-08-21T13:34:42;1.73;;;0.70;;
34775;SDS011;20989;52.566;13.346;2022-08-21T13:37:43;2.88;;;0.70;;
34775;SDS011;20989;52.566;13.346;2022-08-21T13:40:56;1.50;;;0.70;;
34775;SDS011;20989;52.566;13.346;2022-08-21T13:44:13;3.35;;;0.60;;
34775;SDS011;20989;52.566;13.346;2022-08-21T13:47:15;4.68;;;0.80;;
34775;SDS011;20989;52.566;13.346;2022-08-21T13:50:17;1.38;;;0.95;;
34775;SDS011;20989;52.566;13.346;2022-08-21T13:56:41;1.38;;;1.02;;
34775;SDS011;20989;52.566;13.346;2022-08-21T13:59:44;0.95;;;0.60;;
34775;SDS011;20989;52.566;13.346;2022-08-21T14:02:47;1.58;;;0.80;;
34775;SDS011;20989;52.566;13.346;2022-08-21T14:05:50;0.80;;;0.60;;
34775;SDS011;20989;52.566;13.346;2022-08-21T14:08:58;5.35;;;0.70;;
34775;SDS011;20989;52.566;13.346;2022-08-21T14:12:02;1.85;;;0.60;;
34775;SDS011;20989;52.566;13.346;2022-08-21T14:15:16;1.85;;;0.90;;
34775;SDS011;20989;52.566;13.346;2022-08-21T14:18:22;1.52;;;0.70;;
34775;SDS011;20989;52.566;13.346;2022-08-21T14:21:35;1.20;;;0.70;;
34775;SDS011;20989;52.566;13.346;2022-08-21T14:24:39;5.82;;;0.88;;
34775;SDS011;20989;52.566;13.346;2022-08-21T14:27:44;3.15;;;0.70;;
34775;SDS011;20989;52.566;13.346;2022-08-21T14:30:50;5.13;;;0.88;;
34775;SDS011;20989;52.566;13.346;2022-08-21T14:33:52;0.70;;;0.60;;
34775;SDS011;20989;52.566;13.346;2022-08-21T14:36:52;10.52;;;1.05;;
34775;SDS011;20989;52.566;13.346;2022-08-21T14:39:54;8.77;;;0.93;;
34775;SDS011;20989;52.566;13.346;2022-08-21T14:42:55;3.70;;;0.88;;
34775;SDS011;20989;52.566;13.346;2022-08-21T14:45:57;64.18;;;5.07;;
34775;SDS011;20989;52.566;13.346;2022-08-21T14:48:58;19.77;;;2.67;;
34775;SDS011;20989;52.566;13.346;2022-08-21T14:51:58;9.50;;;1.27;;
34775;SDS011;20989;52.566;13.346;2022-08-21T14:54:59;18.45;;;1.73;;
34775;SDS011;20989;52.566;13.346;2022-08-21T14:58:00;14.77;;;1.88;;
34775;SDS011;20989;52.566;13.346;2022-08-21T15:01:00;17.35;;;1.45;;
34775;SDS011;20989;52.566;13.346;2022-08-21T15:04:03;17.27;;;2.22;;
34775;SDS011;20989;52.566;13.346;2022-08-21T15:07:04;6.78;;;1.08;;
34775;SDS011;20989;52.566;13.346;2022-08-21T15:10:06;15.05;;;1.38;;
34775;SDS011;20989;52.566;13.346;2022-08-21T15:13:07;13.57;;;1.60;;
34775;SDS011;20989;52.566;13.346;2022-08-21T15:16:08;15.55;;;2.75;;
34775;SDS011;20989;52.566;13.346;2022-08-21T15:19:10;16.35;;;1.40;;
34775;SDS011;20989;52.566;13.346;2022-08-21T15:22:11;5.68;;;1.30;;
34775;SDS011;20989;52.566;13.346;2022-08-21T15:25:12;8.98;;;1.45;;
34775;SDS011;20989;52.566;13.346;2022-08-21T15:28:12;15.77;;;1.35;;
34775;SDS011;20989;52.566;13.346;2022-08-21T15:31:14;9.68;;;1.52;;
34775;SDS011;20989;52.566;13.346;2022-08-21T15:34:14;9.70;;;1.25;;
34775;SDS011;20989;52.566;13.346;2022-08-21T15:37:16;11.55;;;1.95;;
34775;SDS011;20989;52.566;13.346;2022-08-21T15:40:18;20.85;;;1.63;;
34775;SDS011;20989;52.566;13.346;2022-08-21T15:43:23;8.57;;;1.00;;
34775;SDS011;20989;52.566;13.346;2022-08-21T15:46:25;7.03;;;1.15;;
34775;SDS011;20989;52.566;13.346;2022-08-21T15:49:26;7.40;;;1.10;;
34775;SDS011;20989;52.566;13.346;2022-08-21T15:52:26;9.93;;;1.33;;
34775;SDS011;20989;52.566;13.346;2022-08-21T15:55:27;6.30;;;1.52;;
34775;SDS011;20989;52.566;13.346;2022-08-21T15:58:28;9.93;;;1.45;;
34775;SDS011;20989;52.566;13.346;2022-08-21T16:01:28;14.30;;;1.48;;
34775;SDS011;20989;52.566;13.346;2022-08-21T16:04:29;25.67;;;2.25;;
34775;SDS011;20989;52.566;13.346;2022-08-21T16:07:30;20.35;;;1.98;;
34775;SDS011;20989;52.566;13.346;2022-08-21T16:10:30;18.63;;;1.65;;
34775;SDS011;20989;52.566;13.346;2022-08-21T16:13:41;37.95;;;2.50;;
34775;SDS011;20989;52.566;13.346;2022-08-21T16:16:44;18.15;;;1.63;;
34775;SDS011;20989;52.566;13.346;2022-08-21T16:19:45;12.25;;;1.75;;
34775;SDS011;20989;52.566;13.346;2022-08-21T16:22:46;46.60;;;4.07;;
34775;SDS011;20989;52.566;13.346;2022-08-21T16:25:47;36.85;;;2.35;;
34775;SDS011;20989;52.566;13.346;2022-08-21T16:28:48;18.50;;;2.10;;
34775;SDS011;20989;52.566;13.346;2022-08-21T16:31:51;32.08;;;5.65;;
34775;SDS011;20989;52.566;13.346;2022-08-21T16:34:51;82.32;;;25.80;;
34775;SDS011;20989;52.566;13.346;2022-08-21T16:37:53;49.90;;;14.55;;
34775;SDS011;20989;52.566;13.346;2022-08-21T16:40:54;97.45;;;36.38;;
34775;SDS011;20989;52.566;13.346;2022-08-21T16:43:55;153.90;;;57.10;;
34775;SDS011;20989;52.566;13.346;2022-08-21T16:46:56;101.03;;;35.78;;
34775;SDS011;20989;52.566;13.346;2022-08-21T16:49:57;119.85;;;48.13;;
34775;SDS011;20989;52.566;13.346;2022-08-21T16:52:58;222.85;;;85.25;;
34775;SDS011;20989;52.566;13.346;2022-08-21T16:55:58;132.20;;;48.25;;
34775;SDS011;20989;52.566;13.346;2022-08-21T16:58:59;131.77;;;49.90;;
34775;SDS011;20989;52.566;13.346;2022-08-21T17:02:00;130.73;;;50.03;;
34775;SDS011;20989;52.566;13.346;2022-08-21T17:05:02;128.40;;;45.47;;
34775;SDS011;20989;52.566;13.346;2022-08-21T17:08:04;124.80;;;46.63;;
34775;SDS011;20989;52.566;13.346;2022-08-21T17:11:05;138.70;;;47.08;;
34775;SDS011;20989;52.566;13.346;2022-08-21T17:14:28;131.43;;;45.33;;
34775;SDS011;20989;52.566;13.346;2022-08-21T17:17:28;134.23;;;44.70;;
34775;SDS011;20989;52.566;13.346;2022-08-21T17:20:29;132.88;;;47.13;;
34775;SDS011;20989;52.566;13.346;2022-08-21T17:23:30;162.85;;;61.85;;
34775;SDS011;20989;52.566;13.346;2022-08-21T17:26:31;150.52;;;55.78;;
34775;SDS011;20989;52.566;13.346;2022-08-21T17:29:33;150.40;;;53.45;;
34775;SDS011;20989;52.566;13.346;2022-08-21T17:32:36;124.47;;;52.45;;
34775;SDS011;20989;52.566;13.346;2022-08-21T17:35:38;138.43;;;50.17;;
34775;SDS011;20989;52.566;13.346;2022-08-21T17:38:38;128.23;;;46.50;;
34775;SDS011;20989;52.566;13.346;2022-08-21T17:41:39;116.72;;;44.50;;
34775;SDS011;20989;52.566;13.346;2022-08-21T17:44:41;133.43;;;47.45;;
34775;SDS011;20989;52.566;13.346;2022-08-21T17:47:43;110.85;;;43.45;;
34775;SDS011;20989;52.566;13.346;2022-08-21T17:50:44;109.90;;;43.78;;
34775;SDS011;20989;52.566;13.346;2022-08-21T17:53:45;114.57;;;42.88;;
34775;SDS011;20989;52.566;13.346;2022-08-21T17:56:46;122.65;;;48.53;;
34775;SDS011;20989;52.566;13.346;2022-08-21T17:59:47;122.20;;;45.97;;
34775;SDS011;20989;52.566;13.346;2022-08-21T18:02:48;114.43;;;45.00;;
34775;SDS011;20989;52.566;13.346;2022-08-21T18:05:57;107.32;;;42.72;;
34775;SDS011;20989;52.566;13.346;2022-08-21T18:08:58;119.40;;;41.60;;
34775;SDS011;20989;52.566;13.346;2022-08-21T18:11:59;108.22;;;39.08;;
34775;SDS011;20989;52.566;13.346;2022-08-21T18:15:00;98.28;;;36.67;;
34775;SDS011;20989;52.566;13.346;2022-08-21T18:18:02;114.43;;;37.33;;
34775;SDS011;20989;52.566;13.346;2022-08-21T18:21:04;96.10;;;34.28;;
34775;SDS011;20989;52.566;13.346;2022-08-21T18:24:05;77.95;;;33.03;;
34775;SDS011;20989;52.566;13.346;2022-08-21T18:27:06;82.32;;;34.30;;
34775;SDS011;20989;52.566;13.346;2022-08-21T18:30:08;73.20;;;31.70;;
34775;SDS011;20989;52.566;13.346;2022-08-21T18:33:11;81.65;;;33.35;;
34775;SDS011;20989;52.566;13.346;2022-08-21T18:36:13;74.50;;;29.55;;
34775;SDS011;20989;52.566;13.346;2022-08-21T18:39:13;78.13;;;31.65;;
34775;SDS011;20989;52.566;13.346;2022-08-21T18:42:15;71.78;;;29.30;;
34775;SDS011;20989;52.566;13.346;2022-08-21T18:45:17;66.15;;;26.67;;
34775;SDS011;20989;52.566;13.346;2022-08-21T18:48:19;70.88;;;28.20;;
34775;SDS011;20989;52.566;13.346;2022-08-21T18:51:19;69.55;;;26.58;;
34775;SDS011;20989;52.566;13.346;2022-08-21T18:54:20;62.63;;;26.67;;
34775;SDS011;20989;52.566;13.346;2022-08-21T18:57:23;58.97;;;25.48;;
34775;SDS011;20989;52.566;13.346;2022-08-21T19:00:28;59.28;;;25.30;;
34775;SDS011;20989;52.566;13.346;2022-08-21T19:03:36;58.38;;;24.38;;
34775;SDS011;20989;52.566;13.346;2022-08-21T19:06:37;52.92;;;22.85;;